Alcolu, SC

8:10 PM EDT on July 29, 2016 (GMT -0400)
Westmark-Alice drive | | Change Station

Elev 174 ft 33.95 °N, 80.39 °W | Updated 25 minutes ago

Haze
Haze
86.0 °F
Feels Like 96 °F
N
3.7
Wind Variable Wind from North

Today
High -- | Low -- °F
--% Chance of Precip.
Yesterday
High -- | Low -- °F
Precip. -- in
Pressure 29.95 in
Visibility 5.0 miles
Clouds Few 3000 ft
Scattered Clouds 4800 ft
Mostly Cloudy 6500 ft
Heat Index 96 °F
Dew Point 76 °F
Humidity 71%
Rainfall 0.00 in
Snow Depth Not available.
6:30 AM 8:23 PM
Waning Crescent, 18% visible
METAR KSMS 292355Z AUTO 22012G19KT 180V250 5SM HZ FEW030 SCT048 BKN065 29/24 A2995 RMK AO2 LTG DSNT E
Pressure 29.95 in
Visibility 5.0 miles
Clouds Few 3000 ft
Scattered Clouds 4800 ft
Mostly Cloudy 6500 ft
Heat Index 96 °F
Dew Point 76 °F
Humidity 71%
Rainfall 0.00 in
Snow Depth Not available.
6:30 AM 8:23 PM
Waning Crescent, 18% visible
METAR KSMS 292355Z AUTO 22012G19KT 180V250 5SM HZ FEW030 SCT048 BKN065 29/24 A2995 RMK AO2 LTG DSNT E

10-Day Weather Forecast

Almanac

Astronomy

Jul. 29, 2016 Rise Set
Actual Time
Civil Twilight
Nautical Twilight
Astronomical Twilight
Moon
Length of Visible Light
Length of Day
Tomorrow will be .
, % of the Moon is Illuminated

Today's Extremes

State Highs State Lows

Community

WunderPhotos

Upload Photos

1,928,449 photos uploaded!

WunderBlog® & News

Nearby

Air Quality

  Air Quality AQ Index Pollutant
Not available.

Snow Depth

Station Depth Elevation

Earthquake Activity

City Distance Mag. Time & Date
Minimum magnitude displayed is 2.5.

Coastal Water Temperatures

Place Temperature

Stations

Nearby Weather Stations

Station Location Temp. Windchill Dew Point Humidity Wind Precip. Elev Updated Type
                   

Watches & Warnings

There are currently no watches in effect.